createdAt,value
2023-02-22T00:02:13.082Z,7.34
2023-02-22T00:05:20.795Z,7.29
2023-02-22T00:08:28.258Z,7.23
2023-02-22T00:11:35.941Z,7.16
2023-02-22T00:14:43.801Z,7.12
2023-02-22T00:17:50.873Z,7.09
2023-02-22T00:20:58.718Z,7.12
2023-02-22T00:24:06.297Z,7.13
2023-02-22T00:27:13.334Z,7.16
2023-02-22T00:30:21.260Z,7.19
2023-02-22T00:33:28.534Z,7.22
2023-02-22T00:36:35.864Z,7.22
2023-02-22T00:39:43.784Z,7.23
2023-02-22T00:42:51.037Z,7.22
2023-02-22T00:45:58.566Z,7.24
2023-02-22T00:49:06.175Z,7.27
2023-02-22T00:52:13.622Z,7.32
2023-02-22T00:55:20.880Z,7.34
2023-02-22T00:58:28.306Z,7.34
2023-02-22T01:01:36.129Z,7.37
2023-02-22T01:04:43.462Z,7.37
2023-02-22T01:07:50.680Z,7.35
2023-02-22T01:10:58.808Z,7.34
2023-02-22T01:14:06.141Z,7.37
2023-02-22T01:17:13.331Z,7.38
2023-02-22T01:20:20.865Z,7.41
2023-02-22T01:23:28.224Z,7.41
2023-02-22T01:26:35.371Z,7.41
2023-02-22T01:29:43.094Z,7.44
2023-02-22T01:32:51.993Z,7.44
2023-02-22T01:35:59.653Z,7.47
2023-02-22T01:39:07.174Z,7.49
2023-02-22T01:42:14.504Z,7.47
2023-02-22T01:45:21.842Z,7.49
2023-02-22T01:48:29.471Z,7.44
2023-02-22T01:51:36.848Z,7.44
2023-02-22T01:54:44.373Z,7.40
2023-02-22T01:57:51.763Z,7.34
2023-02-22T02:00:59.471Z,7.26
2023-02-22T02:04:06.884Z,7.19
2023-02-22T02:07:14.054Z,7.04
2023-02-22T02:10:21.727Z,6.94
2023-02-22T02:13:29.086Z,6.80
2023-02-22T02:16:36.439Z,6.66
2023-02-22T02:19:44.098Z,6.53
2023-02-22T02:22:51.053Z,6.43
2023-02-22T02:25:58.736Z,6.30
2023-02-22T02:29:06.722Z,6.16
2023-02-22T02:32:13.816Z,6.04
2023-02-22T02:35:21.655Z,5.96
2023-02-22T02:38:28.883Z,5.89
2023-02-22T02:41:35.809Z,5.78
2023-02-22T02:44:43.791Z,5.70
2023-02-22T02:47:50.855Z,5.60
2023-02-22T02:50:57.663Z,5.52
2023-02-22T02:54:04.964Z,5.46
2023-02-22T02:57:12.644Z,5.43
2023-02-22T03:00:19.514Z,5.34
2023-02-22T03:03:26.169Z,5.23
2023-02-22T03:06:33.298Z,5.22
2023-02-22T03:09:40.682Z,5.23
2023-02-22T03:12:48.071Z,5.23
2023-02-22T03:15:55.336Z,5.22
2023-02-22T03:19:02.214Z,5.16
2023-02-22T03:22:09.889Z,5.09
2023-02-22T03:25:17.056Z,5.02
2023-02-22T03:28:24.076Z,5.04
2023-02-22T03:31:31.689Z,5.02
2023-02-22T03:34:39.394Z,4.94
2023-02-22T03:37:45.852Z,4.91
2023-02-22T03:40:53.343Z,4.89
2023-02-22T03:44:00.877Z,4.86
2023-02-22T03:47:08.380Z,4.88
2023-02-22T03:50:15.593Z,4.77
2023-02-22T03:53:22.836Z,4.70
2023-02-22T03:56:29.469Z,4.67
2023-02-22T03:59:35.883Z,4.79
2023-02-22T04:02:43.721Z,4.89
2023-02-22T04:05:50.514Z,4.98
2023-02-22T04:08:57.590Z,5.07
2023-02-22T04:12:05.177Z,5.10
2023-02-22T04:15:12.129Z,5.16
2023-02-22T04:18:19.314Z,5.22
2023-02-22T04:21:27.098Z,5.35
2023-02-22T04:24:33.758Z,5.37
2023-02-22T04:27:41.369Z,5.34
2023-02-22T04:30:48.490Z,5.30
2023-02-22T04:33:55.853Z,5.23
2023-02-22T04:37:03.207Z,5.25
2023-02-22T04:40:10.596Z,5.25
2023-02-22T04:43:17.546Z,5.28
2023-02-22T04:46:24.391Z,5.37
2023-02-22T04:49:30.418Z,5.43
2023-02-22T04:52:37.565Z,5.45
2023-02-22T04:55:44.167Z,5.43
2023-02-22T04:58:51.306Z,5.41
2023-02-22T05:01:57.951Z,5.43
2023-02-22T05:05:05.006Z,5.46
2023-02-22T05:08:12.312Z,5.43
2023-02-22T05:11:20.000Z,5.37
2023-02-22T05:14:27.046Z,5.35
2023-02-22T05:17:34.699Z,5.35
2023-02-22T05:20:41.387Z,5.32
2023-02-22T05:23:48.501Z,5.30
2023-02-22T05:26:56.089Z,5.25
2023-02-22T05:30:03.851Z,5.22
2023-02-22T05:33:10.746Z,5.17
2023-02-22T05:36:18.371Z,5.16
2023-02-22T05:39:24.743Z,5.14
2023-02-22T05:42:32.235Z,5.05
2023-02-22T05:45:39.799Z,5.04
2023-02-22T05:48:47.086Z,5.01
2023-02-22T05:51:54.646Z,4.98
2023-02-22T05:55:01.955Z,4.99
2023-02-22T05:58:08.844Z,4.95
2023-02-22T06:01:17.814Z,4.94
2023-02-22T06:04:25.648Z,4.95
2023-02-22T06:07:33.095Z,4.94
2023-02-22T06:10:40.067Z,4.95
2023-02-22T06:13:47.206Z,4.99
2023-02-22T06:16:54.898Z,5.05
2023-02-22T06:20:02.287Z,5.19
2023-02-22T06:23:08.741Z,5.37
2023-02-22T06:26:16.634Z,5.52
2023-02-22T06:29:23.901Z,5.67
2023-02-22T06:32:30.470Z,5.74
2023-02-22T06:35:38.077Z,5.82
2023-02-22T06:38:44.909Z,5.89
2023-02-22T06:41:52.232Z,5.95
2023-02-22T06:45:00.129Z,6.03
2023-02-22T06:48:06.888Z,6.10
2023-02-22T06:51:14.540Z,6.18
2023-02-22T06:54:22.330Z,6.29
2023-02-22T06:57:28.961Z,6.36
2023-02-22T07:00:36.895Z,6.43
2023-02-22T07:03:44.714Z,6.46
2023-02-22T07:06:52.233Z,6.47
2023-02-22T07:09:59.080Z,6.53
2023-02-22T07:13:06.364Z,6.62
2023-02-22T07:16:13.902Z,6.68
2023-02-22T07:19:21.310Z,6.77
2023-02-22T07:22:28.140Z,6.86
2023-02-22T07:25:35.809Z,6.90
2023-02-22T07:28:43.074Z,6.94
2023-02-22T07:31:50.505Z,6.95
2023-02-22T07:34:57.750Z,6.95
2023-02-22T07:38:03.505Z,6.98
2023-02-22T07:41:11.269Z,6.97
2023-02-22T07:44:18.766Z,6.97
2023-02-22T07:47:25.440Z,6.98
2023-02-22T07:50:33.099Z,7.04
2023-02-22T07:53:39.654Z,7.08
2023-02-22T07:56:46.417Z,7.12
2023-02-22T07:59:53.710Z,7.16
2023-02-22T08:03:00.985Z,7.23
2023-02-22T08:06:08.779Z,7.31
2023-02-22T08:09:15.898Z,7.40
2023-02-22T08:12:22.270Z,7.44
2023-02-22T08:15:30.074Z,7.49
2023-02-22T08:18:37.182Z,7.52
2023-02-22T08:21:44.192Z,7.55
2023-02-22T08:24:51.712Z,7.58
2023-02-22T08:27:58.565Z,7.62
2023-02-22T08:31:05.882Z,7.72
2023-02-22T08:34:13.562Z,7.78
2023-02-22T08:37:20.924Z,7.93
2023-02-22T08:40:28.166Z,8.04
2023-02-22T08:43:35.859Z,8.15
2023-02-22T08:46:43.211Z,8.28
2023-02-22T08:49:50.649Z,8.37
2023-02-22T08:52:57.520Z,8.50
2023-02-22T08:56:04.464Z,8.62
2023-02-22T08:59:11.715Z,8.75
2023-02-22T09:02:19.198Z,8.86
2023-02-22T09:05:27.128Z,8.97
2023-02-22T09:08:33.939Z,9.13
2023-02-22T09:11:41.664Z,9.24
2023-02-22T09:14:49.610Z,9.38
2023-02-22T09:17:56.716Z,9.53
2023-02-22T09:21:04.616Z,9.64
2023-02-22T09:24:11.769Z,9.78
2023-02-22T09:27:18.255Z,9.86
2023-02-22T09:30:26.067Z,9.93
2023-02-22T09:33:33.139Z,10.00
2023-02-22T09:36:40.146Z,10.09
2023-02-22T09:39:48.252Z,10.19
2023-02-22T09:42:55.502Z,10.30
2023-02-22T09:46:02.975Z,10.39
2023-02-22T09:49:10.772Z,10.47
2023-02-22T09:52:18.156Z,10.59
2023-02-22T09:55:25.607Z,10.63
2023-02-22T09:58:33.527Z,10.71
2023-02-22T10:01:40.854Z,10.74
2023-02-22T10:04:48.210Z,10.80
2023-02-22T10:07:54.997Z,10.91
2023-02-22T10:11:02.253Z,11.03
2023-02-22T10:14:08.758Z,11.14
2023-02-22T10:17:16.129Z,11.29
2023-02-22T10:20:24.108Z,11.39
2023-02-22T10:23:31.129Z,11.47
2023-02-22T10:26:38.395Z,11.57
2023-02-22T10:29:45.884Z,11.68
2023-02-22T10:32:53.061Z,11.68
2023-02-22T10:36:01.530Z,11.71
2023-02-22T10:39:08.740Z,11.75
2023-02-22T10:42:16.770Z,11.85
2023-02-22T10:45:24.545Z,11.97
2023-02-22T10:48:31.622Z,11.96
2023-02-22T10:51:39.634Z,11.94
2023-02-22T10:54:47.434Z,11.96
2023-02-22T10:57:54.645Z,11.97
2023-02-22T11:01:02.411Z,12.04
2023-02-22T11:04:09.991Z,12.08
2023-02-22T11:07:17.526Z,12.06
2023-02-22T11:10:25.410Z,12.08
2023-02-22T11:13:32.758Z,12.09
2023-02-22T11:16:40.090Z,12.15
2023-02-22T11:19:47.518Z,12.13
2023-02-22T11:22:55.437Z,12.16
2023-02-22T11:26:02.881Z,12.24
2023-02-22T11:29:10.219Z,12.31
2023-02-22T11:32:18.095Z,12.38
2023-02-22T11:35:25.265Z,12.42
2023-02-22T11:38:33.043Z,12.51
2023-02-22T11:41:40.612Z,12.60
2023-02-22T11:44:47.794Z,12.69
2023-02-22T11:47:55.534Z,12.75
2023-02-22T11:51:03.072Z,12.82
2023-02-22T11:54:10.503Z,12.87
2023-02-22T11:57:18.044Z,12.95
2023-02-22T12:00:25.618Z,12.95
2023-02-22T12:03:33.472Z,12.96
2023-02-22T12:06:41.366Z,13.02
2023-02-22T12:09:48.911Z,13.04
2023-02-22T12:12:56.422Z,13.12
2023-02-22T12:16:03.995Z,13.20
2023-02-22T12:19:11.767Z,13.27
2023-02-22T12:22:19.222Z,13.41
2023-02-22T12:25:26.769Z,13.56
2023-02-22T12:28:34.743Z,13.70
2023-02-22T12:31:41.954Z,13.81
2023-02-22T12:34:50.071Z,13.83
2023-02-22T12:37:58.021Z,13.83
2023-02-22T12:41:05.104Z,13.98
2023-02-22T12:44:12.879Z,14.09
2023-02-22T12:47:20.354Z,14.01
2023-02-22T12:50:27.805Z,14.07
2023-02-22T12:53:35.647Z,14.04
2023-02-22T12:56:43.106Z,14.12
2023-02-22T12:59:50.579Z,14.14
2023-02-22T13:02:58.079Z,14.21
2023-02-22T13:06:05.642Z,14.25
2023-02-22T13:09:13.087Z,14.31
2023-02-22T13:12:20.213Z,14.28
2023-02-22T13:15:28.220Z,14.21
2023-02-22T13:18:36.042Z,14.29
2023-02-22T13:21:43.335Z,14.34
2023-02-22T13:24:51.288Z,14.39
2023-02-22T13:27:59.053Z,14.35
2023-02-22T13:31:06.196Z,14.35
2023-02-22T13:34:14.125Z,14.37
2023-02-22T13:37:21.635Z,14.35
2023-02-22T13:40:29.126Z,14.39
2023-02-22T13:43:36.691Z,14.34
2023-02-22T13:46:44.603Z,14.32
2023-02-22T13:49:52.134Z,14.29
2023-02-22T13:52:59.938Z,14.29
2023-02-22T13:56:07.297Z,14.28
2023-02-22T13:59:14.555Z,14.31
2023-02-22T14:02:22.624Z,14.31
2023-02-22T14:05:30.668Z,14.25
2023-02-22T14:08:37.643Z,14.25
2023-02-22T14:11:45.216Z,14.24
2023-02-22T14:14:52.506Z,14.20
2023-02-22T14:17:59.998Z,14.16
2023-02-22T14:21:07.637Z,14.12
2023-02-22T14:24:15.284Z,14.09
2023-02-22T14:27:23.061Z,14.04
2023-02-22T14:30:30.675Z,14.02
2023-02-22T14:33:41.262Z,13.95
2023-02-22T14:36:39.402Z,13.89
2023-02-22T14:39:46.844Z,13.84
2023-02-22T14:42:54.764Z,13.77
2023-02-22T14:46:02.017Z,13.71
2023-02-22T14:49:09.716Z,13.65
2023-02-22T14:52:17.613Z,13.65
2023-02-22T14:55:24.721Z,13.58
2023-02-22T14:58:32.596Z,13.54
2023-02-22T15:01:52.794Z,13.43
2023-02-22T15:04:44.694Z,13.37
2023-02-22T15:07:52.188Z,13.33
2023-02-22T15:10:59.424Z,13.25
2023-02-22T15:14:14.628Z,13.20
2023-02-22T15:17:12.131Z,13.11
2023-02-22T15:20:19.594Z,13.00
2023-02-22T15:23:27.173Z,12.95
2023-02-22T15:26:34.723Z,12.87
2023-02-22T15:29:42.739Z,12.78
2023-02-22T15:33:04.967Z,12.66
2023-02-22T15:35:55.284Z,12.57
2023-02-22T15:39:03.193Z,12.48
2023-02-22T15:42:10.301Z,12.38
2023-02-22T15:45:17.854Z,12.30
2023-02-22T15:48:26.098Z,12.21
2023-02-22T15:51:33.402Z,12.12
2023-02-22T15:54:41.448Z,12.02
2023-02-22T15:57:49.377Z,11.87
2023-02-22T16:00:56.608Z,11.78
2023-02-22T16:04:04.607Z,11.70
2023-02-22T16:07:12.403Z,11.59
2023-02-22T16:10:19.518Z,11.50
2023-02-22T16:13:32.427Z,11.43
2023-02-22T16:16:29.590Z,11.35
2023-02-22T16:19:37.100Z,11.27
2023-02-22T16:22:44.607Z,11.14
2023-02-22T16:25:52.395Z,11.09
2023-02-22T16:29:00.184Z,10.98
2023-02-22T16:32:07.546Z,10.89
2023-02-22T16:35:15.551Z,10.80
2023-02-22T16:38:23.636Z,10.73
2023-02-22T16:41:30.811Z,10.65
2023-02-22T16:44:38.843Z,10.59
2023-02-22T16:47:46.788Z,10.55
2023-02-22T16:50:53.968Z,10.51
2023-02-22T16:54:01.726Z,10.43
2023-02-22T16:57:09.520Z,10.36
2023-02-22T17:00:16.517Z,10.32
2023-02-22T17:03:24.201Z,10.26
2023-02-22T17:06:31.690Z,10.22
2023-02-22T17:09:39.220Z,10.18
2023-02-22T17:12:46.876Z,10.14
2023-02-22T17:15:54.407Z,10.09
2023-02-22T17:19:01.940Z,10.07
2023-02-22T17:22:09.491Z,10.03
2023-02-22T17:25:17.040Z,10.03
2023-02-22T17:28:24.293Z,10.00
2023-02-22T17:31:31.841Z,9.97
2023-02-22T17:34:39.472Z,9.97
2023-02-22T17:37:47.026Z,9.96
2023-02-22T17:40:55.270Z,9.96
2023-02-22T17:44:02.758Z,9.94
2023-02-22T17:47:10.246Z,9.94
2023-02-22T17:50:18.404Z,9.93
2023-02-22T17:53:25.577Z,9.93
2023-02-22T17:56:33.420Z,9.91
2023-02-22T17:59:40.926Z,9.89
2023-02-22T18:02:48.494Z,9.88
2023-02-22T18:05:56.411Z,9.88
2023-02-22T18:09:04.002Z,9.82
2023-02-22T18:12:11.665Z,9.81
2023-02-22T18:15:20.155Z,9.79
2023-02-22T18:18:27.170Z,9.73
2023-02-22T18:21:35.027Z,9.71
2023-02-22T18:24:42.581Z,9.66
2023-02-22T18:27:49.917Z,9.63
2023-02-22T18:30:57.079Z,9.60
2023-02-22T18:34:04.411Z,9.53
2023-02-22T18:37:11.851Z,9.49
2023-02-22T18:40:19.198Z,9.46
2023-02-22T18:43:27.040Z,9.43
2023-02-22T18:46:34.580Z,9.38
2023-02-22T18:49:41.925Z,9.34
2023-02-22T18:52:49.658Z,9.31
2023-02-22T18:55:56.805Z,9.28
2023-02-22T18:59:04.508Z,9.23
2023-02-22T19:02:12.219Z,9.20
2023-02-22T19:05:19.088Z,9.18
2023-02-22T19:08:26.510Z,9.13
2023-02-22T19:11:34.124Z,9.10
2023-02-22T19:14:41.102Z,9.06
2023-02-22T19:17:48.741Z,9.06
2023-02-22T19:20:56.185Z,9.06
2023-02-22T19:24:03.912Z,9.02
2023-02-22T19:27:11.600Z,9.02
2023-02-22T19:30:18.647Z,9.04
2023-02-22T19:33:26.195Z,9.04
2023-02-22T19:36:33.772Z,9.05
2023-02-22T19:39:41.477Z,9.04
2023-02-22T19:42:50.116Z,9.04
2023-02-22T19:45:57.478Z,8.99
2023-02-22T19:49:05.338Z,8.99
2023-02-22T19:52:13.246Z,9.01
2023-02-22T19:55:20.312Z,8.97
2023-02-22T19:58:28.171Z,8.96
2023-02-22T20:01:35.998Z,8.96
2023-02-22T20:04:43.651Z,8.96
2023-02-22T20:07:51.011Z,8.93
2023-02-22T20:10:59.926Z,8.90
2023-02-22T20:14:07.401Z,8.88
2023-02-22T20:17:15.029Z,8.90
2023-02-22T20:20:21.981Z,8.86
2023-02-22T20:23:29.949Z,8.87
2023-02-22T20:26:37.671Z,8.84
2023-02-22T20:29:45.441Z,8.83
2023-02-22T20:32:53.548Z,8.79
2023-02-22T20:36:01.930Z,8.81
2023-02-22T20:39:09.310Z,8.78
2023-02-22T20:42:17.173Z,8.72
2023-02-22T20:45:25.972Z,8.69
2023-02-22T20:48:33.765Z,8.68
2023-02-22T20:51:42.353Z,8.68
2023-02-22T20:54:50.752Z,8.66
2023-02-22T20:57:58.165Z,8.63
2023-02-22T21:01:05.652Z,8.60
2023-02-22T21:04:13.545Z,8.57
2023-02-22T21:07:21.818Z,8.54
2023-02-22T21:10:28.918Z,8.53
2023-02-22T21:13:36.330Z,8.47
2023-02-22T21:16:43.420Z,8.44
2023-02-22T21:19:50.310Z,8.40
2023-02-22T21:22:58.026Z,8.37
2023-02-22T21:26:05.273Z,8.35
2023-02-22T21:29:12.380Z,8.30
2023-02-22T21:32:19.655Z,8.26
2023-02-22T21:35:26.796Z,8.21
2023-02-22T21:38:34.280Z,8.17
2023-02-22T21:41:41.600Z,8.15
2023-02-22T21:44:49.050Z,8.15
2023-02-22T21:47:56.801Z,8.12
2023-02-22T21:51:03.944Z,8.10
2023-02-22T21:54:11.905Z,8.08
2023-02-22T21:57:19.604Z,8.07
2023-02-22T22:00:26.545Z,8.02
2023-02-22T22:03:33.869Z,8.00
2023-02-22T22:06:41.308Z,7.97
2023-02-22T22:09:48.326Z,7.93
2023-02-22T22:12:56.205Z,7.90
2023-02-22T22:16:03.608Z,7.82
2023-02-22T22:19:11.037Z,7.77
2023-02-22T22:22:18.683Z,7.71
2023-02-22T22:25:26.192Z,7.63
2023-02-22T22:28:33.651Z,7.58
2023-02-22T22:31:41.416Z,7.55
2023-02-22T22:34:48.883Z,7.50
2023-02-22T22:37:56.282Z,7.49
2023-02-22T22:41:03.650Z,7.49
2023-02-22T22:44:11.423Z,7.45
2023-02-22T22:47:18.881Z,7.42
2023-02-22T22:50:26.198Z,7.40
2023-02-22T22:53:33.915Z,7.40
2023-02-22T22:56:41.153Z,7.40
2023-02-22T22:59:48.591Z,7.37
2023-02-22T23:02:56.414Z,7.37
2023-02-22T23:06:03.376Z,7.37
2023-02-22T23:09:10.981Z,7.37
2023-02-22T23:12:18.750Z,7.38
2023-02-22T23:15:25.845Z,7.35
2023-02-22T23:18:33.659Z,7.35
2023-02-22T23:21:41.241Z,7.38
2023-02-22T23:24:48.178Z,7.37
2023-02-22T23:27:55.514Z,7.37
2023-02-22T23:31:02.964Z,7.35
2023-02-22T23:34:10.256Z,7.34
2023-02-22T23:37:17.821Z,7.34
2023-02-22T23:40:25.363Z,7.32
2023-02-22T23:43:32.686Z,7.31
2023-02-22T23:46:39.927Z,7.27
2023-02-22T23:49:47.499Z,7.27
2023-02-22T23:52:54.747Z,7.26
2023-02-22T23:56:02.020Z,7.24
2023-02-22T23:59:09.890Z,7.24
